sensor_id;sensor_type;location;lat;lon;timestamp;P1;durP1;ratioP1;P2;durP2;ratioP2
16468;SDS011;8345;50.902;6.956;2023-03-04T00:01:32;72.87;;;42.30;;
16468;SDS011;8345;50.902;6.956;2023-03-04T00:03:59;65.27;;;41.33;;
16468;SDS011;8345;50.902;6.956;2023-03-04T00:06:26;71.47;;;43.03;;
16468;SDS011;8345;50.902;6.956;2023-03-04T00:08:53;68.70;;;41.03;;
16468;SDS011;8345;50.902;6.956;2023-03-04T00:11:22;69.93;;;41.57;;
16468;SDS011;8345;50.902;6.956;2023-03-04T00:13:49;71.90;;;42.37;;
16468;SDS011;8345;50.902;6.956;2023-03-04T00:16:16;66.07;;;40.83;;
16468;SDS011;8345;50.902;6.956;2023-03-04T00:18:44;68.27;;;41.20;;
16468;SDS011;8345;50.902;6.956;2023-03-04T00:21:11;67.83;;;41.77;;
16468;SDS011;8345;50.902;6.956;2023-03-04T00:23:38;67.87;;;39.10;;
16468;SDS011;8345;50.902;6.956;2023-03-04T00:26:07;70.30;;;43.10;;
16468;SDS011;8345;50.902;6.956;2023-03-04T00:28:35;68.17;;;41.67;;
16468;SDS011;8345;50.902;6.956;2023-03-04T00:31:03;73.83;;;41.40;;
16468;SDS011;8345;50.902;6.956;2023-03-04T00:33:31;69.23;;;40.10;;
16468;SDS011;8345;50.902;6.956;2023-03-04T00:35:58;66.60;;;39.23;;
16468;SDS011;8345;50.902;6.956;2023-03-04T00:38:25;70.47;;;40.63;;
16468;SDS011;8345;50.902;6.956;2023-03-04T00:40:53;68.20;;;40.30;;
16468;SDS011;8345;50.902;6.956;2023-03-04T00:43:20;70.17;;;41.23;;
16468;SDS011;8345;50.902;6.956;2023-03-04T00:45:48;74.57;;;41.07;;
16468;SDS011;8345;50.902;6.956;2023-03-04T00:48:16;63.57;;;39.77;;
16468;SDS011;8345;50.902;6.956;2023-03-04T00:50:43;66.27;;;37.73;;
16468;SDS011;8345;50.902;6.956;2023-03-04T00:53:10;65.33;;;39.50;;
16468;SDS011;8345;50.902;6.956;2023-03-04T00:55:37;65.43;;;39.57;;
16468;SDS011;8345;50.902;6.956;2023-03-04T00:58:04;64.87;;;39.07;;
16468;SDS011;8345;50.902;6.956;2023-03-04T01:00:31;62.40;;;38.50;;
16468;SDS011;8345;50.902;6.956;2023-03-04T01:03:00;64.73;;;39.80;;
16468;SDS011;8345;50.902;6.956;2023-03-04T01:05:27;60.83;;;36.20;;
16468;SDS011;8345;50.902;6.956;2023-03-04T01:07:56;61.80;;;38.10;;
16468;SDS011;8345;50.902;6.956;2023-03-04T01:10:23;61.97;;;37.10;;
16468;SDS011;8345;50.902;6.956;2023-03-04T01:12:50;59.13;;;36.17;;
16468;SDS011;8345;50.902;6.956;2023-03-04T01:15:17;58.20;;;36.87;;
16468;SDS011;8345;50.902;6.956;2023-03-04T01:17:45;57.13;;;35.20;;
16468;SDS011;8345;50.902;6.956;2023-03-04T01:20:13;58.90;;;34.17;;
16468;SDS011;8345;50.902;6.956;2023-03-04T01:22:40;52.60;;;32.70;;
16468;SDS011;8345;50.902;6.956;2023-03-04T01:25:08;50.67;;;31.10;;
16468;SDS011;8345;50.902;6.956;2023-03-04T01:27:35;48.80;;;29.70;;
16468;SDS011;8345;50.902;6.956;2023-03-04T01:30:03;40.73;;;27.00;;
16468;SDS011;8345;50.902;6.956;2023-03-04T01:32:30;43.43;;;27.73;;
16468;SDS011;8345;50.902;6.956;2023-03-04T01:34:58;44.97;;;28.73;;
16468;SDS011;8345;50.902;6.956;2023-03-04T01:37:26;45.37;;;25.90;;
16468;SDS011;8345;50.902;6.956;2023-03-04T01:39:53;40.17;;;26.30;;
16468;SDS011;8345;50.902;6.956;2023-03-04T01:42:21;38.53;;;23.83;;
16468;SDS011;8345;50.902;6.956;2023-03-04T01:44:49;38.00;;;24.73;;
16468;SDS011;8345;50.902;6.956;2023-03-04T01:47:17;39.00;;;23.97;;
16468;SDS011;8345;50.902;6.956;2023-03-04T01:49:45;39.43;;;23.03;;
16468;SDS011;8345;50.902;6.956;2023-03-04T01:52:13;35.90;;;21.93;;
16468;SDS011;8345;50.902;6.956;2023-03-04T01:54:41;35.10;;;20.90;;
16468;SDS011;8345;50.902;6.956;2023-03-04T01:57:14;32.10;;;19.90;;
16468;SDS011;8345;50.902;6.956;2023-03-04T01:59:41;30.80;;;19.57;;
16468;SDS011;8345;50.902;6.956;2023-03-04T02:02:09;31.77;;;18.77;;
16468;SDS011;8345;50.902;6.956;2023-03-04T02:04:36;32.83;;;20.07;;
16468;SDS011;8345;50.902;6.956;2023-03-04T02:07:03;29.90;;;18.93;;
16468;SDS011;8345;50.902;6.956;2023-03-04T02:09:31;31.33;;;19.13;;
16468;SDS011;8345;50.902;6.956;2023-03-04T02:12:01;26.00;;;18.13;;
16468;SDS011;8345;50.902;6.956;2023-03-04T02:14:28;29.30;;;17.13;;
16468;SDS011;8345;50.902;6.956;2023-03-04T02:16:55;26.70;;;17.70;;
16468;SDS011;8345;50.902;6.956;2023-03-04T02:19:26;24.40;;;16.57;;
16468;SDS011;8345;50.902;6.956;2023-03-04T02:21:55;24.33;;;16.27;;
16468;SDS011;8345;50.902;6.956;2023-03-04T02:26:52;25.60;;;15.63;;
16468;SDS011;8345;50.902;6.956;2023-03-04T02:29:20;23.13;;;14.30;;
16468;SDS011;8345;50.902;6.956;2023-03-04T02:31:47;24.23;;;15.37;;
16468;SDS011;8345;50.902;6.956;2023-03-04T02:34:16;22.47;;;14.53;;
16468;SDS011;8345;50.902;6.956;2023-03-04T02:36:44;25.43;;;14.97;;
16468;SDS011;8345;50.902;6.956;2023-03-04T02:39:19;25.17;;;14.67;;
16468;SDS011;8345;50.902;6.956;2023-03-04T02:41:47;22.27;;;13.63;;
16468;SDS011;8345;50.902;6.956;2023-03-04T02:44:17;23.77;;;14.40;;
16468;SDS011;8345;50.902;6.956;2023-03-04T02:46:44;23.00;;;13.63;;
16468;SDS011;8345;50.902;6.956;2023-03-04T02:49:11;24.10;;;13.67;;
16468;SDS011;8345;50.902;6.956;2023-03-04T02:51:39;18.97;;;13.20;;
16468;SDS011;8345;50.902;6.956;2023-03-04T02:54:13;21.53;;;12.93;;
16468;SDS011;8345;50.902;6.956;2023-03-04T02:56:43;23.17;;;12.83;;
16468;SDS011;8345;50.902;6.956;2023-03-04T02:59:10;23.50;;;13.30;;
16468;SDS011;8345;50.902;6.956;2023-03-04T03:01:39;19.77;;;12.80;;
16468;SDS011;8345;50.902;6.956;2023-03-04T03:04:06;21.50;;;12.80;;
16468;SDS011;8345;50.902;6.956;2023-03-04T03:06:33;23.17;;;13.03;;
16468;SDS011;8345;50.902;6.956;2023-03-04T03:09:01;19.83;;;12.37;;
16468;SDS011;8345;50.902;6.956;2023-03-04T03:11:28;20.03;;;12.70;;
16468;SDS011;8345;50.902;6.956;2023-03-04T03:13:55;23.93;;;13.33;;
16468;SDS011;8345;50.902;6.956;2023-03-04T03:16:23;22.83;;;13.13;;
16468;SDS011;8345;50.902;6.956;2023-03-04T03:18:51;19.83;;;12.53;;
16468;SDS011;8345;50.902;6.956;2023-03-04T03:21:19;22.93;;;12.30;;
16468;SDS011;8345;50.902;6.956;2023-03-04T03:23:46;21.80;;;12.50;;
16468;SDS011;8345;50.902;6.956;2023-03-04T03:26:13;20.60;;;12.87;;
16468;SDS011;8345;50.902;6.956;2023-03-04T03:28:40;19.90;;;12.27;;
16468;SDS011;8345;50.902;6.956;2023-03-04T03:31:08;20.67;;;12.30;;
16468;SDS011;8345;50.902;6.956;2023-03-04T03:33:35;21.77;;;12.77;;
16468;SDS011;8345;50.902;6.956;2023-03-04T03:36:04;22.87;;;11.77;;
16468;SDS011;8345;50.902;6.956;2023-03-04T03:38:32;19.83;;;12.10;;
16468;SDS011;8345;50.902;6.956;2023-03-04T03:40:59;25.67;;;12.13;;
16468;SDS011;8345;50.902;6.956;2023-03-04T03:43:26;26.80;;;12.20;;
16468;SDS011;8345;50.902;6.956;2023-03-04T03:45:53;21.70;;;11.97;;
16468;SDS011;8345;50.902;6.956;2023-03-04T03:48:20;21.07;;;11.67;;
16468;SDS011;8345;50.902;6.956;2023-03-04T03:50:47;19.03;;;11.77;;
16468;SDS011;8345;50.902;6.956;2023-03-04T03:53:16;22.87;;;12.27;;
16468;SDS011;8345;50.902;6.956;2023-03-04T03:55:43;23.20;;;11.47;;
16468;SDS011;8345;50.902;6.956;2023-03-04T03:58:10;24.97;;;13.20;;
16468;SDS011;8345;50.902;6.956;2023-03-04T04:00:38;18.63;;;12.07;;
16468;SDS011;8345;50.902;6.956;2023-03-04T04:03:05;17.70;;;11.37;;
16468;SDS011;8345;50.902;6.956;2023-03-04T04:05:32;21.63;;;11.93;;
16468;SDS011;8345;50.902;6.956;2023-03-04T04:08:00;18.87;;;11.40;;
16468;SDS011;8345;50.902;6.956;2023-03-04T04:10:28;23.67;;;12.10;;
16468;SDS011;8345;50.902;6.956;2023-03-04T04:12:55;19.13;;;11.03;;
16468;SDS011;8345;50.902;6.956;2023-03-04T04:15:23;19.30;;;11.43;;
16468;SDS011;8345;50.902;6.956;2023-03-04T04:17:50;18.87;;;11.77;;
16468;SDS011;8345;50.902;6.956;2023-03-04T04:20:17;18.93;;;11.33;;
16468;SDS011;8345;50.902;6.956;2023-03-04T04:22:44;21.43;;;11.13;;
16468;SDS011;8345;50.902;6.956;2023-03-04T04:25:12;18.13;;;11.50;;
16468;SDS011;8345;50.902;6.956;2023-03-04T04:27:40;19.90;;;11.37;;
16468;SDS011;8345;50.902;6.956;2023-03-04T04:30:08;19.40;;;10.90;;
16468;SDS011;8345;50.902;6.956;2023-03-04T04:32:35;22.13;;;12.43;;
16468;SDS011;8345;50.902;6.956;2023-03-04T04:35:02;20.93;;;11.70;;
16468;SDS011;8345;50.902;6.956;2023-03-04T04:37:30;20.13;;;11.30;;
16468;SDS011;8345;50.902;6.956;2023-03-04T04:39:57;19.30;;;10.57;;
16468;SDS011;8345;50.902;6.956;2023-03-04T04:42:24;21.17;;;10.50;;
16468;SDS011;8345;50.902;6.956;2023-03-04T04:44:53;21.23;;;11.00;;
16468;SDS011;8345;50.902;6.956;2023-03-04T04:47:21;19.93;;;11.07;;
16468;SDS011;8345;50.902;6.956;2023-03-04T04:49:48;22.90;;;11.27;;
16468;SDS011;8345;50.902;6.956;2023-03-04T04:52:15;18.53;;;9.57;;
16468;SDS011;8345;50.902;6.956;2023-03-04T04:54:43;16.67;;;10.10;;
16468;SDS011;8345;50.902;6.956;2023-03-04T04:57:10;22.77;;;10.93;;
16468;SDS011;8345;50.902;6.956;2023-03-04T04:59:37;18.30;;;9.27;;
16468;SDS011;8345;50.902;6.956;2023-03-04T05:02:05;18.07;;;9.70;;
16468;SDS011;8345;50.902;6.956;2023-03-04T05:04:33;18.67;;;9.67;;
16468;SDS011;8345;50.902;6.956;2023-03-04T05:07:00;18.20;;;8.87;;
16468;SDS011;8345;50.902;6.956;2023-03-04T05:09:27;18.07;;;9.10;;
16468;SDS011;8345;50.902;6.956;2023-03-04T05:11:54;22.27;;;11.10;;
16468;SDS011;8345;50.902;6.956;2023-03-04T05:14:21;26.80;;;13.70;;
16468;SDS011;8345;50.902;6.956;2023-03-04T05:16:48;27.70;;;14.13;;
16468;SDS011;8345;50.902;6.956;2023-03-04T05:19:21;23.77;;;14.40;;
16468;SDS011;8345;50.902;6.956;2023-03-04T05:21:49;27.27;;;14.77;;
16468;SDS011;8345;50.902;6.956;2023-03-04T05:24:16;31.40;;;15.50;;
16468;SDS011;8345;50.902;6.956;2023-03-04T05:26:43;32.97;;;16.43;;
16468;SDS011;8345;50.902;6.956;2023-03-04T05:29:10;33.37;;;17.00;;
16468;SDS011;8345;50.902;6.956;2023-03-04T05:31:37;27.57;;;15.67;;
16468;SDS011;8345;50.902;6.956;2023-03-04T05:34:04;30.53;;;15.50;;
16468;SDS011;8345;50.902;6.956;2023-03-04T05:36:33;29.03;;;14.47;;
16468;SDS011;8345;50.902;6.956;2023-03-04T05:39:00;24.20;;;13.67;;
16468;SDS011;8345;50.902;6.956;2023-03-04T05:41:27;25.13;;;11.17;;
16468;SDS011;8345;50.902;6.956;2023-03-04T05:43:54;20.93;;;10.87;;
16468;SDS011;8345;50.902;6.956;2023-03-04T05:46:21;22.73;;;10.23;;
16468;SDS011;8345;50.902;6.956;2023-03-04T05:48:49;17.40;;;8.90;;
16468;SDS011;8345;50.902;6.956;2023-03-04T05:51:16;16.57;;;8.60;;
16468;SDS011;8345;50.902;6.956;2023-03-04T05:53:45;15.73;;;8.30;;
16468;SDS011;8345;50.902;6.956;2023-03-04T05:56:13;15.03;;;8.37;;
16468;SDS011;8345;50.902;6.956;2023-03-04T05:58:41;16.20;;;7.70;;
16468;SDS011;8345;50.902;6.956;2023-03-04T06:01:08;19.97;;;6.90;;
16468;SDS011;8345;50.902;6.956;2023-03-04T06:03:36;15.13;;;6.07;;
16468;SDS011;8345;50.902;6.956;2023-03-04T06:06:03;13.50;;;6.03;;
16468;SDS011;8345;50.902;6.956;2023-03-04T06:08:30;14.47;;;5.47;;
16468;SDS011;8345;50.902;6.956;2023-03-04T06:10:59;10.47;;;6.03;;
16468;SDS011;8345;50.902;6.956;2023-03-04T06:13:26;13.97;;;5.27;;
16468;SDS011;8345;50.902;6.956;2023-03-04T06:15:54;12.03;;;5.30;;
16468;SDS011;8345;50.902;6.956;2023-03-04T06:18:22;10.43;;;5.43;;
16468;SDS011;8345;50.902;6.956;2023-03-04T06:20:49;13.87;;;5.23;;
16468;SDS011;8345;50.902;6.956;2023-03-04T06:23:16;12.50;;;5.63;;
16468;SDS011;8345;50.902;6.956;2023-03-04T06:25:43;15.60;;;5.97;;
16468;SDS011;8345;50.902;6.956;2023-03-04T06:28:12;10.13;;;4.70;;
16468;SDS011;8345;50.902;6.956;2023-03-04T06:30:39;9.47;;;4.07;;
16468;SDS011;8345;50.902;6.956;2023-03-04T06:33:06;11.90;;;4.13;;
16468;SDS011;8345;50.902;6.956;2023-03-04T06:35:33;13.43;;;4.43;;
16468;SDS011;8345;50.902;6.956;2023-03-04T06:38:01;7.63;;;4.20;;
16468;SDS011;8345;50.902;6.956;2023-03-04T06:40:28;12.20;;;4.17;;
16468;SDS011;8345;50.902;6.956;2023-03-04T06:42:55;10.17;;;4.03;;
16468;SDS011;8345;50.902;6.956;2023-03-04T06:45:24;12.03;;;4.07;;
16468;SDS011;8345;50.902;6.956;2023-03-04T06:47:51;10.00;;;3.90;;
16468;SDS011;8345;50.902;6.956;2023-03-04T06:50:18;12.37;;;4.47;;
16468;SDS011;8345;50.902;6.956;2023-03-04T06:52:45;11.13;;;4.77;;
16468;SDS011;8345;50.902;6.956;2023-03-04T06:55:13;15.63;;;5.10;;
16468;SDS011;8345;50.902;6.956;2023-03-04T06:57:40;11.13;;;5.07;;
16468;SDS011;8345;50.902;6.956;2023-03-04T07:00:08;14.13;;;5.23;;
16468;SDS011;8345;50.902;6.956;2023-03-04T07:02:37;11.97;;;5.00;;
16468;SDS011;8345;50.902;6.956;2023-03-04T07:05:04;13.70;;;4.37;;
16468;SDS011;8345;50.902;6.956;2023-03-04T07:07:31;11.37;;;4.03;;
16468;SDS011;8345;50.902;6.956;2023-03-04T07:09:59;10.50;;;4.10;;
16468;SDS011;8345;50.902;6.956;2023-03-04T07:12:26;10.70;;;3.77;;
16468;SDS011;8345;50.902;6.956;2023-03-04T07:14:53;9.87;;;4.10;;
16468;SDS011;8345;50.902;6.956;2023-03-04T07:17:21;10.63;;;3.40;;
16468;SDS011;8345;50.902;6.956;2023-03-04T07:19:49;8.83;;;3.60;;
16468;SDS011;8345;50.902;6.956;2023-03-04T07:22:16;9.33;;;3.87;;
16468;SDS011;8345;50.902;6.956;2023-03-04T07:24:44;9.63;;;3.57;;
16468;SDS011;8345;50.902;6.956;2023-03-04T07:27:11;8.97;;;3.20;;
16468;SDS011;8345;50.902;6.956;2023-03-04T07:29:38;8.63;;;3.67;;
16468;SDS011;8345;50.902;6.956;2023-03-04T07:32:06;12.47;;;3.60;;
16468;SDS011;8345;50.902;6.956;2023-03-04T07:34:33;12.67;;;3.60;;
16468;SDS011;8345;50.902;6.956;2023-03-04T07:37:02;10.27;;;3.70;;
16468;SDS011;8345;50.902;6.956;2023-03-04T07:39:29;8.00;;;3.27;;
16468;SDS011;8345;50.902;6.956;2023-03-04T07:41:56;9.47;;;3.63;;
16468;SDS011;8345;50.902;6.956;2023-03-04T07:44:23;11.40;;;3.53;;
16468;SDS011;8345;50.902;6.956;2023-03-04T07:46:50;8.03;;;3.63;;
16468;SDS011;8345;50.902;6.956;2023-03-04T07:49:17;10.27;;;3.93;;
16468;SDS011;8345;50.902;6.956;2023-03-04T07:51:45;6.83;;;3.20;;
16468;SDS011;8345;50.902;6.956;2023-03-04T07:54:13;8.70;;;3.60;;
16468;SDS011;8345;50.902;6.956;2023-03-04T07:56:40;13.83;;;3.27;;
16468;SDS011;8345;50.902;6.956;2023-03-04T07:59:08;12.20;;;4.00;;
16468;SDS011;8345;50.902;6.956;2023-03-04T08:01:35;14.03;;;4.20;;
16468;SDS011;8345;50.902;6.956;2023-03-04T08:04:03;9.33;;;3.53;;
16468;SDS011;8345;50.902;6.956;2023-03-04T08:06:31;11.33;;;3.13;;
16468;SDS011;8345;50.902;6.956;2023-03-04T08:08:59;8.07;;;3.30;;
16468;SDS011;8345;50.902;6.956;2023-03-04T08:11:28;9.40;;;3.47;;
16468;SDS011;8345;50.902;6.956;2023-03-04T08:13:55;9.57;;;3.70;;
16468;SDS011;8345;50.902;6.956;2023-03-04T08:16:23;11.53;;;3.63;;
16468;SDS011;8345;50.902;6.956;2023-03-04T08:18:51;8.43;;;3.10;;
16468;SDS011;8345;50.902;6.956;2023-03-04T08:21:20;8.67;;;3.40;;
16468;SDS011;8345;50.902;6.956;2023-03-04T08:23:47;10.37;;;3.43;;
16468;SDS011;8345;50.902;6.956;2023-03-04T08:26:16;7.93;;;3.47;;
16468;SDS011;8345;50.902;6.956;2023-03-04T08:28:45;9.80;;;3.57;;
16468;SDS011;8345;50.902;6.956;2023-03-04T08:31:12;6.73;;;2.87;;
16468;SDS011;8345;50.902;6.956;2023-03-04T08:33:40;10.80;;;3.60;;
16468;SDS011;8345;50.902;6.956;2023-03-04T08:36:07;9.70;;;3.00;;
16468;SDS011;8345;50.902;6.956;2023-03-04T08:38:34;9.37;;;3.57;;
16468;SDS011;8345;50.902;6.956;2023-03-04T08:41:02;8.77;;;2.87;;
16468;SDS011;8345;50.902;6.956;2023-03-04T08:43:29;9.10;;;3.53;;
16468;SDS011;8345;50.902;6.956;2023-03-04T08:45:57;9.23;;;3.20;;
16468;SDS011;8345;50.902;6.956;2023-03-04T08:48:25;9.70;;;3.00;;
16468;SDS011;8345;50.902;6.956;2023-03-04T08:50:52;4.40;;;2.70;;
16468;SDS011;8345;50.902;6.956;2023-03-04T08:53:20;8.10;;;3.10;;
16468;SDS011;8345;50.902;6.956;2023-03-04T08:55:47;7.83;;;2.97;;
16468;SDS011;8345;50.902;6.956;2023-03-04T08:58:14;10.97;;;3.60;;
16468;SDS011;8345;50.902;6.956;2023-03-04T09:00:44;7.43;;;2.83;;
16468;SDS011;8345;50.902;6.956;2023-03-04T09:03:14;10.60;;;3.03;;
16468;SDS011;8345;50.902;6.956;2023-03-04T09:05:43;10.97;;;3.33;;
16468;SDS011;8345;50.902;6.956;2023-03-04T09:08:10;8.23;;;2.97;;
16468;SDS011;8345;50.902;6.956;2023-03-04T09:10:38;7.17;;;2.80;;
16468;SDS011;8345;50.902;6.956;2023-03-04T09:13:05;6.57;;;3.10;;
16468;SDS011;8345;50.902;6.956;2023-03-04T09:15:35;10.10;;;3.50;;
16468;SDS011;8345;50.902;6.956;2023-03-04T09:18:03;7.53;;;2.83;;
16468;SDS011;8345;50.902;6.956;2023-03-04T09:20:31;7.60;;;2.83;;
16468;SDS011;8345;50.902;6.956;2023-03-04T09:22:59;8.30;;;2.73;;
16468;SDS011;8345;50.902;6.956;2023-03-04T09:25:26;8.70;;;3.33;;
16468;SDS011;8345;50.902;6.956;2023-03-04T09:27:53;6.50;;;3.00;;
16468;SDS011;8345;50.902;6.956;2023-03-04T09:30:20;5.67;;;2.60;;
16468;SDS011;8345;50.902;6.956;2023-03-04T09:32:47;4.53;;;2.60;;
16468;SDS011;8345;50.902;6.956;2023-03-04T09:35:15;7.60;;;2.30;;
16468;SDS011;8345;50.902;6.956;2023-03-04T09:37:43;6.30;;;2.90;;
16468;SDS011;8345;50.902;6.956;2023-03-04T09:40:12;6.70;;;2.30;;
16468;SDS011;8345;50.902;6.956;2023-03-04T09:42:43;6.87;;;2.00;;
16468;SDS011;8345;50.902;6.956;2023-03-04T09:45:12;6.17;;;2.07;;
16468;SDS011;8345;50.902;6.956;2023-03-04T09:47:42;5.93;;;2.10;;
16468;SDS011;8345;50.902;6.956;2023-03-04T09:50:10;3.93;;;2.00;;
16468;SDS011;8345;50.902;6.956;2023-03-04T09:52:41;5.33;;;2.13;;
16468;SDS011;8345;50.902;6.956;2023-03-04T09:55:14;4.53;;;2.27;;
16468;SDS011;8345;50.902;6.956;2023-03-04T09:57:46;6.00;;;2.23;;
16468;SDS011;8345;50.902;6.956;2023-03-04T10:00:16;7.50;;;2.40;;
16468;SDS011;8345;50.902;6.956;2023-03-04T10:02:45;5.60;;;2.20;;
16468;SDS011;8345;50.902;6.956;2023-03-04T10:05:17;5.53;;;2.33;;
16468;SDS011;8345;50.902;6.956;2023-03-04T10:07:47;5.43;;;2.33;;
16468;SDS011;8345;50.902;6.956;2023-03-04T10:10:17;5.67;;;2.00;;
16468;SDS011;8345;50.902;6.956;2023-03-04T10:12:45;7.63;;;2.60;;
16468;SDS011;8345;50.902;6.956;2023-03-04T10:15:20;5.57;;;2.37;;
16468;SDS011;8345;50.902;6.956;2023-03-04T10:17:48;4.57;;;2.90;;
16468;SDS011;8345;50.902;6.956;2023-03-04T10:20:19;3.87;;;2.30;;
16468;SDS011;8345;50.902;6.956;2023-03-04T10:22:48;5.03;;;2.40;;
16468;SDS011;8345;50.902;6.956;2023-03-04T10:25:18;8.20;;;2.67;;
16468;SDS011;8345;50.902;6.956;2023-03-04T10:27:48;4.07;;;2.20;;
16468;SDS011;8345;50.902;6.956;2023-03-04T10:30:18;6.30;;;2.47;;
16468;SDS011;8345;50.902;6.956;2023-03-04T10:32:47;5.50;;;2.53;;
16468;SDS011;8345;50.902;6.956;2023-03-04T10:35:14;6.53;;;2.60;;
16468;SDS011;8345;50.902;6.956;2023-03-04T10:37:42;4.33;;;2.47;;
16468;SDS011;8345;50.902;6.956;2023-03-04T10:42:48;3.43;;;2.00;;
16468;SDS011;8345;50.902;6.956;2023-03-04T10:45:19;4.83;;;2.40;;
16468;SDS011;8345;50.902;6.956;2023-03-04T10:47:50;3.30;;;1.80;;
16468;SDS011;8345;50.902;6.956;2023-03-04T10:50:20;2.60;;;1.83;;
16468;SDS011;8345;50.902;6.956;2023-03-04T10:52:48;7.30;;;2.00;;
16468;SDS011;8345;50.902;6.956;2023-03-04T10:55:18;3.93;;;2.13;;
16468;SDS011;8345;50.902;6.956;2023-03-04T10:57:48;4.80;;;2.23;;
16468;SDS011;8345;50.902;6.956;2023-03-04T11:00:22;4.33;;;2.37;;
16468;SDS011;8345;50.902;6.956;2023-03-04T11:02:50;5.57;;;2.00;;
16468;SDS011;8345;50.902;6.956;2023-03-04T11:05:18;4.77;;;2.10;;
16468;SDS011;8345;50.902;6.956;2023-03-04T11:07:47;5.43;;;2.03;;
16468;SDS011;8345;50.902;6.956;2023-03-04T11:10:16;4.63;;;2.10;;
16468;SDS011;8345;50.902;6.956;2023-03-04T11:12:47;2.07;;;1.43;;
16468;SDS011;8345;50.902;6.956;2023-03-04T11:15:20;4.23;;;1.80;;
16468;SDS011;8345;50.902;6.956;2023-03-04T11:17:52;4.67;;;2.23;;
16468;SDS011;8345;50.902;6.956;2023-03-04T11:20:24;4.30;;;2.27;;
16468;SDS011;8345;50.902;6.956;2023-03-04T11:22:52;5.43;;;2.27;;
16468;SDS011;8345;50.902;6.956;2023-03-04T11:25:23;7.27;;;2.30;;
16468;SDS011;8345;50.902;6.956;2023-03-04T11:27:52;6.27;;;2.67;;
16468;SDS011;8345;50.902;6.956;2023-03-04T11:33:07;4.27;;;2.57;;
16468;SDS011;8345;50.902;6.956;2023-03-04T11:35:37;4.57;;;2.30;;
16468;SDS011;8345;50.902;6.956;2023-03-04T11:38:09;5.57;;;2.63;;
16468;SDS011;8345;50.902;6.956;2023-03-04T11:40:42;4.57;;;2.83;;
16468;SDS011;8345;50.902;6.956;2023-03-04T11:43:10;5.90;;;2.90;;
16468;SDS011;8345;50.902;6.956;2023-03-04T11:45:53;6.17;;;2.53;;
16468;SDS011;8345;50.902;6.956;2023-03-04T11:48:29;5.47;;;2.17;;
16468;SDS011;8345;50.902;6.956;2023-03-04T11:50:58;4.73;;;2.30;;
16468;SDS011;8345;50.902;6.956;2023-03-04T11:53:29;4.83;;;2.50;;
16468;SDS011;8345;50.902;6.956;2023-03-04T11:56:01;4.07;;;2.60;;
16468;SDS011;8345;50.902;6.956;2023-03-04T11:58:38;2.70;;;2.17;;
16468;SDS011;8345;50.902;6.956;2023-03-04T12:01:08;3.47;;;2.90;;
16468;SDS011;8345;50.902;6.956;2023-03-04T12:03:41;4.90;;;2.03;;
16468;SDS011;8345;50.902;6.956;2023-03-04T12:06:11;4.60;;;2.03;;
16468;SDS011;8345;50.902;6.956;2023-03-04T12:08:50;6.33;;;2.27;;
16468;SDS011;8345;50.902;6.956;2023-03-04T12:11:21;5.70;;;2.40;;
16468;SDS011;8345;50.902;6.956;2023-03-04T12:13:54;4.03;;;1.80;;
16468;SDS011;8345;50.902;6.956;2023-03-04T12:16:39;4.63;;;2.27;;
16468;SDS011;8345;50.902;6.956;2023-03-04T12:19:14;4.10;;;1.90;;
16468;SDS011;8345;50.902;6.956;2023-03-04T12:21:53;4.60;;;1.97;;
16468;SDS011;8345;50.902;6.956;2023-03-04T12:27:06;5.73;;;2.30;;
16468;SDS011;8345;50.902;6.956;2023-03-04T12:29:38;6.03;;;2.10;;
16468;SDS011;8345;50.902;6.956;2023-03-04T12:32:11;3.80;;;2.07;;
16468;SDS011;8345;50.902;6.956;2023-03-04T12:34:45;2.97;;;1.60;;
16468;SDS011;8345;50.902;6.956;2023-03-04T12:42:49;3.03;;;1.80;;
16468;SDS011;8345;50.902;6.956;2023-03-04T12:45:21;4.50;;;1.80;;
16468;SDS011;8345;50.902;6.956;2023-03-04T12:47:54;3.57;;;1.93;;
16468;SDS011;8345;50.902;6.956;2023-03-04T12:50:29;4.97;;;2.13;;
16468;SDS011;8345;50.902;6.956;2023-03-04T12:52:58;3.13;;;2.17;;
16468;SDS011;8345;50.902;6.956;2023-03-04T12:55:29;3.30;;;1.63;;
16468;SDS011;8345;50.902;6.956;2023-03-04T12:57:59;5.70;;;2.50;;
16468;SDS011;8345;50.902;6.956;2023-03-04T13:00:29;3.77;;;1.70;;
16468;SDS011;8345;50.902;6.956;2023-03-04T13:03:02;3.10;;;1.47;;
16468;SDS011;8345;50.902;6.956;2023-03-04T13:08:20;3.47;;;1.40;;
16468;SDS011;8345;50.902;6.956;2023-03-04T13:10:51;3.87;;;1.60;;
16468;SDS011;8345;50.902;6.956;2023-03-04T13:13:37;4.37;;;1.37;;
16468;SDS011;8345;50.902;6.956;2023-03-04T13:16:05;3.33;;;1.47;;
16468;SDS011;8345;50.902;6.956;2023-03-04T13:18:45;2.43;;;1.20;;
16468;SDS011;8345;50.902;6.956;2023-03-04T13:21:19;1.90;;;1.40;;
16468;SDS011;8345;50.902;6.956;2023-03-04T13:23:49;2.10;;;1.37;;
16468;SDS011;8345;50.902;6.956;2023-03-04T13:26:26;2.90;;;1.30;;
16468;SDS011;8345;50.902;6.956;2023-03-04T13:29:08;2.53;;;1.20;;
16468;SDS011;8345;50.902;6.956;2023-03-04T13:37:11;2.50;;;1.60;;
16468;SDS011;8345;50.902;6.956;2023-03-04T13:42:39;1.70;;;1.20;;
16468;SDS011;8345;50.902;6.956;2023-03-04T13:47:48;3.93;;;1.40;;
16468;SDS011;8345;50.902;6.956;2023-03-04T13:50:23;2.33;;;1.33;;
16468;SDS011;8345;50.902;6.956;2023-03-04T13:52:52;2.53;;;1.50;;
16468;SDS011;8345;50.902;6.956;2023-03-04T13:55:33;3.70;;;1.50;;
16468;SDS011;8345;50.902;6.956;2023-03-04T13:58:02;1.30;;;1.20;;
16468;SDS011;8345;50.902;6.956;2023-03-04T14:00:43;2.17;;;1.20;;
16468;SDS011;8345;50.902;6.956;2023-03-04T14:03:12;1.80;;;1.10;;
16468;SDS011;8345;50.902;6.956;2023-03-04T14:05:40;3.00;;;1.10;;
16468;SDS011;8345;50.902;6.956;2023-03-04T14:08:17;1.20;;;1.10;;
16468;SDS011;8345;50.902;6.956;2023-03-04T14:10:44;3.43;;;1.70;;
16468;SDS011;8345;50.902;6.956;2023-03-04T14:13:21;2.90;;;1.53;;
16468;SDS011;8345;50.902;6.956;2023-03-04T14:15:53;2.93;;;1.40;;
16468;SDS011;8345;50.902;6.956;2023-03-04T14:18:21;2.90;;;1.53;;
16468;SDS011;8345;50.902;6.956;2023-03-04T14:20:49;2.60;;;1.80;;
16468;SDS011;8345;50.902;6.956;2023-03-04T14:23:24;4.00;;;1.63;;
16468;SDS011;8345;50.902;6.956;2023-03-04T14:26:01;3.63;;;1.90;;
16468;SDS011;8345;50.902;6.956;2023-03-04T14:28:30;5.10;;;2.10;;
16468;SDS011;8345;50.902;6.956;2023-03-04T14:30:57;4.13;;;2.20;;
16468;SDS011;8345;50.902;6.956;2023-03-04T14:33:25;4.27;;;2.60;;
16468;SDS011;8345;50.902;6.956;2023-03-04T14:35:53;3.53;;;2.60;;
16468;SDS011;8345;50.902;6.956;2023-03-04T14:38:22;5.23;;;3.33;;
16468;SDS011;8345;50.902;6.956;2023-03-04T14:40:51;5.13;;;3.20;;
16468;SDS011;8345;50.902;6.956;2023-03-04T14:43:19;4.70;;;3.07;;
16468;SDS011;8345;50.902;6.956;2023-03-04T14:45:48;3.17;;;2.60;;
16468;SDS011;8345;50.902;6.956;2023-03-04T14:48:18;4.43;;;2.77;;
16468;SDS011;8345;50.902;6.956;2023-03-04T14:50:47;3.93;;;2.50;;
16468;SDS011;8345;50.902;6.956;2023-03-04T14:53:15;4.43;;;2.20;;
16468;SDS011;8345;50.902;6.956;2023-03-04T14:55:58;3.87;;;2.30;;
16468;SDS011;8345;50.902;6.956;2023-03-04T14:58:26;2.93;;;1.80;;
16468;SDS011;8345;50.902;6.956;2023-03-04T15:01:12;3.87;;;2.40;;
16468;SDS011;8345;50.902;6.956;2023-03-04T15:03:40;5.00;;;2.07;;
16468;SDS011;8345;50.902;6.956;2023-03-04T15:06:14;3.90;;;2.07;;
16468;SDS011;8345;50.902;6.956;2023-03-04T15:08:42;4.97;;;2.67;;
16468;SDS011;8345;50.902;6.956;2023-03-04T15:11:13;3.87;;;2.47;;
16468;SDS011;8345;50.902;6.956;2023-03-04T15:13:47;4.20;;;2.50;;
16468;SDS011;8345;50.902;6.956;2023-03-04T15:16:16;4.47;;;2.67;;
16468;SDS011;8345;50.902;6.956;2023-03-04T15:18:53;4.33;;;2.93;;
16468;SDS011;8345;50.902;6.956;2023-03-04T15:21:28;4.93;;;3.10;;
16468;SDS011;8345;50.902;6.956;2023-03-04T15:23:55;4.03;;;2.77;;
16468;SDS011;8345;50.902;6.956;2023-03-04T15:26:23;3.27;;;2.70;;
16468;SDS011;8345;50.902;6.956;2023-03-04T15:28:51;5.20;;;2.80;;